Portada
METAR-TAF:

METAR-TAF

Aeropuertos :

El Aaiún, Marruecos

Aeropuerto Internacional Hassan I

latitud: 27-10N, longitud: 013-12-59W, altitud: 6 m

Observación

El informe se hizo hace 38 minutos, a las 12:00 UTC
Viento 17 kt del norte
Temperatura 21°C
Humedad 53%
Presión 1020 hPa
Visibilidad 10 km o más
Nubes dispersas a una altura de 3000 ft
Nubes dispersas a una altura de 4000 ft

METAR: GMML 081200Z 01017KT 9999 SCT030 SCT040 21/11 Q1020 NOSIG

Hora: 13:38 (12:38 UTC)

Pronóstico

El informe se hizo hace 1 hora y 38 minutos, a las 11:00 UTC
Pronóstico válido del 08 a las 12 UTC al 09 a las 18 UTC
Viento 14 kt del norte
Visibilidad 10 km o más
Nubes dispersas a una altura de 2300 ft
Cielo nuboso a una altura de 3300 ft
Probabilidad 40%
del 08 a las 16 UTC al 09 a las 00 UTC
Visibilidad: 2000 m
arena

TAF: GMML 081100Z 0812/0918 35014KT 9999 SCT023 BKN033 PROB40 0816/0900 2000 SA

Observaciones y pronósticos meteorológicos de más de 4000 aeropuertos (mensajes METAR y TAF).

Los puntos amarillos y rojos representan las estaciones disponibles.

Ponga el ratón en el punto deseado para ver el nombre de la estación.

Haga clic para ver las observaciones y los pronósticos meteorológicos.

Para cambiar el mapa : haga clic en los botones verdes con una cruz de color negro para hacer un zoom, en el botón verde con un guión para alejar o en las flechas verdes para mapas adyacentes.


METAR-TAF: